Time;durP1;ratioP1;P1;durP2;ratioP2;P2;SDS_P1;SDS_P2;PMS_P1;PMS_P2;Temp;Humidity;BMP_temperature;BMP_pressure;BME280_temperature;BME280_humidity;BME280_pressure;Samples;Min_cycle;Max_cycle;Signal;HPM_P1;HPM_P2
2021/04/29 00:01:18;;;;;;;14.10;9.50;;;;;;;7.31;67.12;100214.91;5091813;28;20373;-69
2021/04/29 00:03:43;;;;;;;15.03;9.13;;;;;;;7.31;66.93;100210.41;5091709;28;20587;-69
2021/04/29 00:06:09;;;;;;;17.45;9.65;;;;;;;7.35;67.01;100201.16;5091587;28;20044;-69
2021/04/29 00:08:38;;;;;;;12.27;8.50;;;;;;;7.35;67.32;100200.31;5091396;28;20066;-69
2021/04/29 00:11:05;;;;;;;17.58;9.90;;;;;;;7.32;67.41;100192.66;5091396;28;20055;-69
2021/04/29 00:13:31;;;;;;;19.17;10.60;;;;;;;7.32;67.05;100193.47;5091591;28;20042;-69
2021/04/29 00:15:56;;;;;;;14.77;9.18;;;;;;;7.35;66.89;100187.88;5073640;28;20132;-69
2021/04/29 00:18:22;;;;;;;16.17;9.80;;;;;;;7.30;67.40;100186.66;5073478;28;20040;-69
2021/04/29 00:20:48;;;;;;;19.20;10.20;;;;;;;7.31;67.57;100191.00;5091439;28;20040;-69
2021/04/29 00:23:13;;;;;;;13.73;9.98;;;;;;;7.26;67.74;100190.59;5057014;28;20142;-69
2021/04/29 00:25:39;;;;;;;15.13;10.10;;;;;;;7.24;67.86;100200.56;5073701;28;20040;-69
2021/04/29 00:28:04;;;;;;;14.23;9.10;;;;;;;7.16;68.26;100199.53;5090998;28;20071;-69
2021/04/29 00:30:30;;;;;;;13.60;8.97;;;;;;;7.24;67.59;100198.75;5091459;28;20718;-69
2021/04/29 00:32:55;;;;;;;17.63;8.77;;;;;;;7.20;68.39;100208.00;5073413;28;20043;-70
2021/04/29 00:35:20;;;;;;;20.27;10.03;;;;;;;7.25;68.15;100203.06;5091247;28;20070;-70
2021/04/29 00:37:47;;;;;;;17.33;10.00;;;;;;;7.21;68.16;100198.22;5073261;28;20085;-69
2021/04/29 00:40:14;;;;;;;19.33;9.43;;;;;;;7.21;68.05;100203.53;5091226;28;20040;-70
2021/04/29 00:42:41;;;;;;;22.58;10.00;;;;;;;7.15;68.41;100207.63;5056462;28;20089;-70
2021/04/29 00:45:09;;;;;;;18.73;9.48;;;;;;;7.15;68.40;100205.81;5073316;28;20457;-70
2021/04/29 00:47:35;;;;;;;16.92;9.75;;;;;;;7.06;68.82;100195.28;5090611;28;20089;-69
2021/04/29 00:50:01;;;;;;;20.88;9.75;;;;;;;7.17;68.80;100193.22;5056468;28;20483;-70
2021/04/29 00:52:29;;;;;;;19.35;10.45;;;;;;;7.23;68.42;100197.06;5073269;28;20036;-69
2021/04/29 00:54:54;;;;;;;21.80;10.23;;;;;;;7.16;69.17;100191.56;5073235;28;20071;-70
2021/04/29 00:57:20;;;;;;;19.33;10.60;;;;;;;7.05;69.37;100185.66;5073271;28;20221;-70
2021/04/29 00:59:45;;;;;;;16.17;10.30;;;;;;;7.08;69.25;100193.31;5072935;28;20028;-70
2021/04/29 01:02:11;;;;;;;22.07;11.00;;;;;;;7.02;69.31;100191.25;5090840;28;20032;-70
2021/04/29 01:04:46;;;;;;;19.05;11.73;;;;;;;6.99;69.65;100179.13;5073228;28;20105;-70
2021/04/29 01:07:14;;;;;;;21.98;11.30;;;;;;;6.98;69.90;100182.78;5090838;28;20089;-70
2021/04/29 01:09:45;;;;;;;20.02;11.63;;;;;;;7.01;69.50;100174.50;5090645;28;20047;-70
2021/04/29 01:12:13;;;;;;;22.35;9.90;;;;;;;7.00;69.60;100180.81;5073135;28;20157;-70
2021/04/29 01:14:40;;;;;;;17.67;11.40;;;;;;;7.00;69.79;100177.31;5090752;28;20101;-70
2021/04/29 01:17:07;;;;;;;24.02;12.73;;;;;;;6.96;70.03;100179.44;5073185;28;20101;-70
2021/04/29 01:19:45;;;;;;;17.80;11.40;;;;;;;6.90;69.99;100175.56;5094559;28;20066;-70
2021/04/29 01:22:14;;;;;;;21.77;11.77;;;;;;;6.95;69.73;100168.00;5076924;28;20636;-70
2021/04/29 01:24:46;;;;;;;18.05;11.77;;;;;;;6.98;70.07;100161.53;5094740;28;20441;-70
2021/04/29 01:27:14;;;;;;;22.67;11.07;;;;;;;6.99;70.19;100163.19;5076549;28;20040;-70
2021/04/29 01:29:41;;;;;;;23.73;12.02;;;;;;;7.01;70.32;100157.75;5094476;28;20046;-70
2021/04/29 01:32:07;;;;;;;19.65;11.25;;;;;;;7.01;70.13;100157.75;5094644;28;20059;-70
2021/04/29 01:34:37;;;;;;;16.52;10.70;;;;;;;7.03;70.70;100161.91;5094719;28;20413;-70
2021/04/29 01:37:04;;;;;;;27.10;11.35;;;;;;;7.04;71.14;100158.25;5094644;28;20060;-69
2021/04/29 01:39:29;;;;;;;19.75;11.00;;;;;;;7.02;71.80;100154.94;5076345;28;20399;-69
2021/04/29 01:41:55;;;;;;;23.00;12.03;;;;;;;7.02;71.62;100154.09;5076374;28;20051;-70
2021/04/29 01:44:23;;;;;;;23.23;11.25;;;;;;;7.02;71.87;100154.94;5059905;28;20282;-70
2021/04/29 01:46:50;;;;;;;21.10;12.20;;;;;;;7.04;72.85;100147.66;5094406;28;20085;-70
2021/04/29 01:49:16;;;;;;;26.25;13.60;;;;;;;6.94;73.09;100154.88;5076288;28;20119;-70
2021/04/29 01:51:43;;;;;;;25.77;14.15;;;;;;;6.90;73.54;100149.03;5059929;28;20121;-70
2021/04/29 01:54:10;;;;;;;27.55;12.63;;;;;;;6.93;72.93;100150.53;5094247;28;20115;-70
2021/04/29 01:56:36;;;;;;;26.00;13.93;;;;;;;6.86;73.16;100139.72;5076482;28;20032;-70
2021/04/29 01:59:04;;;;;;;24.38;12.82;;;;;;;6.90;72.98;100141.06;5093870;28;20069;-70
2021/04/29 02:01:30;;;;;;;24.67;12.80;;;;;;;6.84;73.61;100131.09;5094064;28;20051;-70
2021/04/29 02:03:55;;;;;;;23.13;12.37;;;;;;;6.85;73.26;100135.38;5076284;28;20040;-70
2021/04/29 02:06:21;;;;;;;21.57;11.53;;;;;;;6.85;73.15;100126.59;5076189;28;20044;-70
2021/04/29 02:08:46;;;;;;;21.08;12.77;;;;;;;6.81;73.70;100128.72;5075720;28;20119;-70
2021/04/29 02:11:13;;;;;;;26.03;12.60;;;;;;;6.79;73.12;100125.41;5093756;28;20389;-69
2021/04/29 02:13:45;;;;;;;20.08;11.65;;;;;;;6.81;73.33;100119.94;5059191;28;20036;-70
2021/04/29 02:16:16;;;;;;;23.27;12.65;;;;;;;6.80;73.18;100118.28;5075979;28;20047;-70
2021/04/29 02:18:48;;;;;;;25.80;12.18;;;;;;;6.79;73.19;100122.75;5093605;28;20086;-70
2021/04/29 02:21:19;;;;;;;24.23;12.35;;;;;;;6.74;73.19;100120.56;5075921;28;20075;-70
2021/04/29 02:23:47;;;;;;;24.45;12.85;;;;;;;6.68;73.59;100113.19;5076049;28;20124;-70
2021/04/29 02:26:14;;;;;;;32.72;13.40;;;;;;;6.65;73.73;100113.50;5075871;28;20032;-69
2021/04/29 02:28:41;;;;;;;18.70;12.18;;;;;;;6.72;73.81;100108.44;5074897;28;20468;-70
2021/04/29 02:31:07;;;;;;;23.90;13.10;;;;;;;6.68;73.71;100109.72;5075272;28;20093;-70
2021/04/29 02:33:33;;;;;;;29.30;13.48;;;;;;;6.65;73.97;100102.91;5058915;28;20377;-70
2021/04/29 02:35:58;;;;;;;19.98;12.82;;;;;;;6.65;74.02;100105.56;5075398;28;20044;-70
2021/04/29 02:38:24;;;;;;;24.30;13.70;;;;;;;6.66;73.87;100101.91;5075318;28;20074;-70
2021/04/29 02:40:50;;;;;;;28.67;13.88;;;;;;;6.67;74.01;100100.94;5075463;28;20126;-70
2021/04/29 02:43:17;;;;;;;20.73;11.50;;;;;;;6.68;73.87;100094.63;5075501;28;20488;-70
2021/04/29 02:45:43;;;;;;;20.02;12.32;;;;;;;6.68;74.02;100094.63;5075521;28;20369;-70
2021/04/29 02:48:09;;;;;;;22.50;13.50;;;;;;;6.66;73.87;100088.63;5075024;28;20036;-70
2021/04/29 02:50:35;;;;;;;;;;;;;;;6.68;74.25;100091.16;5093492;28;20059;-70
2021/04/29 02:53:01;;;;;;;25.17;13.35;;;;;;;6.70;74.07;100089.19;5093090;28;19915;-70
2021/04/29 02:55:26;;;;;;;20.02;13.90;;;;;;;6.70;73.71;100082.06;5093138;28;20105;-70
2021/04/29 02:57:59;;;;;;;23.07;14.13;;;;;;;6.69;73.53;100083.00;5092836;28;20035;-70
2021/04/29 03:00:26;;;;;;;22.23;14.35;;;;;;;6.67;73.70;100086.81;5075089;28;20046;-70
2021/04/29 03:02:51;;;;;;;22.23;13.20;;;;;;;6.66;73.40;100086.00;5092996;28;20136;-70
2021/04/29 03:05:16;;;;;;;25.27;13.33;;;;;;;6.51;74.11;100085.72;5058230;28;20104;-70
2021/04/29 03:07:42;;;;;;;20.53;10.37;;;;;;;6.44;74.25;100097.06;5092444;28;20044;-70
2021/04/29 03:10:09;;;;;;;22.20;12.80;;;;;;;6.52;74.22;100090.00;5092527;28;20031;-70
2021/04/29 03:12:35;;;;;;;26.52;13.48;;;;;;;6.57;74.54;100080.78;5092655;28;20032;-70
2021/04/29 03:15:01;;;;;;;25.55;13.05;;;;;;;6.65;74.25;100089.63;5092494;28;20550;-70
2021/04/29 03:17:27;;;;;;;23.88;13.00;;;;;;;6.74;73.80;100087.88;5092406;28;20391;-70
2021/04/29 03:19:53;;;;;;;25.67;13.50;;;;;;;6.72;74.35;100074.78;5092237;28;20107;-70
2021/04/29 03:22:18;;;;;;;22.27;12.50;;;;;;;6.70;74.23;100079.41;5092370;28;20274;-70
2021/04/29 03:24:44;;;;;;;20.30;12.02;;;;;;;6.70;74.29;100082.06;5092336;28;20471;-70
2021/04/29 03:27:09;;;;;;;27.07;12.83;;;;;;;6.58;74.71;100085.06;5074414;28;20400;-70
2021/04/29 03:29:35;;;;;;;20.80;13.00;;;;;;;6.59;74.90;100078.81;5091959;28;20175;-70
2021/04/29 03:32:00;;;;;;;26.77;14.50;;;;;;;6.57;74.97;100075.47;5092344;28;20062;-70
2021/04/29 03:34:25;;;;;;;23.93;13.70;;;;;;;6.54;75.03;100081.91;5092093;28;20132;-70
2021/04/29 03:36:51;;;;;;;18.63;12.00;;;;;;;6.57;75.18;100070.16;5092219;28;20137;-70
2021/04/29 03:39:16;;;;;;;25.93;14.63;;;;;;;6.52;75.28;100074.09;5057257;28;20054;-70
2021/04/29 03:41:41;;;;;;;22.43;12.97;;;;;;;6.48;75.31;100072.72;5057247;28;20028;-70
2021/04/29 03:44:07;;;;;;;19.67;12.70;;;;;;;6.50;75.64;100073.41;5091850;28;20441;-70
2021/04/29 03:46:32;;;;;;;22.70;13.50;;;;;;;6.45;75.38;100072.22;5057464;28;20036;-70
2021/04/29 03:48:57;;;;;;;22.53;12.90;;;;;;;6.46;75.41;100074.72;5091393;28;20331;-70
2021/04/29 03:51:23;;;;;;;24.50;13.23;;;;;;;6.52;75.17;100078.56;5091753;28;20032;-70
2021/04/29 03:53:48;;;;;;;27.93;14.13;;;;;;;6.49;75.40;100073.59;5091850;28;20470;-70
2021/04/29 03:56:14;;;;;;;36.27;14.30;;;;;;;6.55;75.04;100080.91;5057270;28;20109;-69
2021/04/29 03:58:39;;;;;;;30.10;14.30;;;;;;;6.57;74.46;100076.28;5091385;28;20043;-70
2021/04/29 04:01:04;;;;;;;22.07;12.00;;;;;;;6.63;74.42;100069.56;5073935;28;20369;-70
2021/04/29 04:03:30;;;;;;;21.43;12.67;;;;;;;6.64;74.51;100073.88;5073762;28;20153;-70
2021/04/29 04:05:55;;;;;;;26.73;13.47;;;;;;;6.64;74.68;100077.34;5091540;28;20099;-70
2021/04/29 04:08:20;;;;;;;26.50;13.70;;;;;;;6.66;74.71;100074.56;5091256;28;20060;-70
2021/04/29 04:10:46;;;;;;;29.23;13.67;;;;;;;6.62;75.57;100073.19;5073641;28;20109;-70
2021/04/29 04:13:21;;;;;;;20.50;13.27;;;;;;;6.61;76.35;100076.84;5073611;28;20495;-70
2021/04/29 04:15:47;;;;;;;22.42;12.73;;;;;;;6.56;76.38;100077.28;5073749;28;20093;-64
2021/04/29 04:18:13;;;;;;;22.88;14.55;;;;;;;6.57;76.71;100072.81;5091066;28;20371;-64
2021/04/29 04:20:40;;;;;;;32.10;15.70;;;;;;;6.58;76.69;100066.50;5091415;28;20425;-64
2021/04/29 04:23:05;;;;;;;25.25;15.60;;;;;;;6.59;77.29;100069.03;5091326;28;20040;-64
2021/04/29 04:25:31;;;;;;;28.25;14.65;;;;;;;6.63;77.41;100070.38;5091319;28;20111;-64
2021/04/29 04:27:57;;;;;;;31.20;15.63;;;;;;;6.63;77.29;100059.78;5056408;28;20103;-65
2021/04/29 04:30:22;;;;;;;29.30;15.80;;;;;;;6.67;77.86;100065.59;5091277;28;20032;-64
2021/04/29 04:32:48;;;;;;;31.90;16.30;;;;;;;6.72;78.01;100056.19;5091159;28;20035;-64
2021/04/29 04:35:13;;;;;;;22.13;14.90;;;;;;;6.72;77.72;100066.00;5073288;28;20602;-65
2021/04/29 04:37:39;;;;;;;31.90;16.88;;;;;;;6.78;78.23;100056.56;5090979;28;20123;-64
2021/04/29 04:40:05;;;;;;;30.03;18.67;;;;;;;6.83;78.19;100054.28;5091209;28;20035;-64
2021/04/29 04:42:30;;;;;;;27.10;15.82;;;;;;;6.84;78.66;100054.13;5091054;28;20040;-64
2021/04/29 04:44:56;;;;;;;32.20;17.77;;;;;;;6.87;78.86;100047.69;5073479;28;20399;-64
2021/04/29 04:47:21;;;;;;;27.50;17.73;;;;;;;6.89;79.49;100043.88;5091030;28;20036;-64
2021/04/29 04:49:46;;;;;;;35.80;19.37;;;;;;;6.86;79.48;100044.19;5073279;28;20057;-64
2021/04/29 04:52:12;;;;;;;30.20;17.50;;;;;;;6.81;79.13;100040.31;5090478;28;20028;-64
2021/04/29 04:54:37;;;;;;;28.43;16.90;;;;;;;6.84;79.34;100050.66;5091289;28;20036;-64
2021/04/29 04:57:03;;;;;;;30.67;16.17;;;;;;;6.87;79.70;100045.03;5091220;28;20143;-65
2021/04/29 04:59:28;;;;;;;25.65;17.70;;;;;;;6.94;79.71;100051.38;5073027;28;20040;-64
2021/04/29 05:01:54;;;;;;;28.20;15.50;;;;;;;7.01;79.60;100051.59;5073294;28;20093;-65
2021/04/29 05:04:20;;;;;;;23.30;13.27;;;;;;;7.08;79.33;100057.94;5073395;28;20122;-64
2021/04/29 05:06:45;;;;;;;28.40;15.75;;;;;;;7.11;79.32;100069.06;5092679;28;20032;-71
2021/04/29 05:09:10;;;;;;;26.47;17.37;;;;;;;7.17;79.72;100062.31;5073036;28;20043;-71
2021/04/29 05:11:36;;;;;;;32.97;17.17;;;;;;;7.15;79.96;100065.09;5073239;28;20036;-71
2021/04/29 05:14:01;;;;;;;28.67;19.10;;;;;;;7.11;80.38;100069.06;5073335;28;20437;-71
2021/04/29 05:16:27;;;;;;;32.50;17.47;;;;;;;7.21;82.14;100070.78;5090939;28;20028;-71
2021/04/29 05:18:52;;;;;;;33.80;17.47;;;;;;;7.39;81.93;100079.50;5090886;28;20081;-64
2021/04/29 05:21:18;;;;;;;27.20;16.50;;;;;;;7.56;80.52;100073.28;5090986;28;20036;-65
2021/04/29 05:23:46;;;;;;;29.48;18.52;;;;;;;7.48;79.38;100073.25;5056513;28;20074;-65
2021/04/29 05:26:11;;;;;;;35.33;20.20;;;;;;;7.39;80.18;100068.88;5056468;28;20096;-65
2021/04/29 05:28:37;;;;;;;35.25;18.88;;;;;;;7.25;80.92;100074.78;5090947;28;20036;-65
2021/04/29 05:31:02;;;;;;;36.73;20.00;;;;;;;7.23;80.94;100082.06;5072921;28;20044;-65
2021/04/29 05:33:27;;;;;;;36.27;19.40;;;;;;;7.13;81.00;100077.69;5073100;28;20028;-65
2021/04/29 05:35:53;;;;;;;35.17;20.17;;;;;;;7.15;80.82;100081.03;5090877;28;20626;-64
2021/04/29 05:38:18;;;;;;;36.60;21.30;;;;;;;7.08;81.48;100081.81;5090584;28;20618;-64
2021/04/29 05:40:43;;;;;;;34.60;22.53;;;;;;;7.08;81.56;100081.81;5056354;28;20040;-64
2021/04/29 05:43:09;;;;;;;36.43;22.07;;;;;;;6.96;81.30;100068.81;5090574;28;20461;-65
2021/04/29 05:45:34;;;;;;;36.00;21.33;;;;;;;6.89;81.53;100074.91;5072936;28;20377;-65
2021/04/29 05:47:59;;;;;;;40.47;21.53;;;;;;;6.62;82.15;100073.19;5072693;28;20042;-65
2021/04/29 05:50:25;;;;;;;57.17;23.80;;;;;;;6.53;82.84;100067.81;5090785;28;20031;-64
2021/04/29 05:52:50;;;;;;;36.07;20.63;;;;;;;6.63;83.21;100069.56;5090605;28;20032;-64
2021/04/29 05:55:16;;;;;;;39.60;21.73;;;;;;;6.69;83.32;100067.09;5072770;28;20036;-64
2021/04/29 05:57:41;;;;;;;39.63;24.00;;;;;;;6.81;83.77;100073.00;5072373;28;20040;-65
2021/04/29 06:00:07;;;;;;;38.60;23.60;;;;;;;6.86;84.00;100061.91;5072697;28;20043;-65
2021/04/29 06:02:37;;;;;;;39.28;23.45;;;;;;;6.85;83.30;100068.22;5090724;28;20516;-65
2021/04/29 06:05:03;;;;;;;37.00;23.77;;;;;;;6.94;83.73;100067.28;5093555;28;20115;-65
2021/04/29 06:07:29;;;;;;;42.72;23.70;;;;;;;6.93;83.97;100065.63;5075754;28;20373;-65
2021/04/29 06:09:54;;;;;;;33.17;21.67;;;;;;;6.92;83.61;100069.28;5076308;28;20040;-65
2021/04/29 06:12:19;;;;;;;43.93;21.67;;;;;;;6.99;83.59;100065.00;5059359;28;20036;-65
2021/04/29 06:14:45;;;;;;;43.63;23.20;;;;;;;6.95;84.07;100061.84;5093816;28;20342;-64
2021/04/29 06:17:10;;;;;;;40.00;22.97;;;;;;;6.85;83.94;100057.59;5093832;28;20032;-65
2021/04/29 06:19:36;;;;;;;44.17;25.00;;;;;;;6.82;84.69;100063.25;5093548;28;20051;-65
2021/04/29 06:22:02;;;;;;;38.55;24.13;;;;;;;6.81;84.51;100061.56;5093735;28;20294;-65
2021/04/29 06:24:27;;;;;;;42.58;26.48;;;;;;;6.91;84.96;100062.31;5075524;28;20024;-65
2021/04/29 06:26:53;;;;;;;40.83;25.63;;;;;;;6.95;84.93;100063.63;5091932;28;20086;-65
2021/04/29 06:29:18;;;;;;;46.30;27.50;;;;;;;6.82;84.36;100053.44;5090369;28;20062;-65
2021/04/29 06:31:45;;;;;;;33.20;20.77;;;;;;;6.90;84.99;100056.16;5091991;28;20028;-65
2021/04/29 06:34:11;;;;;;;46.10;27.08;;;;;;;6.90;85.16;100056.16;5091860;28;20089;-65
2021/04/29 06:36:36;;;;;;;47.80;25.45;;;;;;;6.84;85.48;100055.97;5073999;28;20120;-65
2021/04/29 06:39:03;;;;;;;50.23;26.27;;;;;;;6.87;85.93;100056.47;5091619;28;20111;-65
2021/04/29 06:41:29;;;;;;;50.47;28.27;;;;;;;6.91;86.05;100051.69;5074768;28;20040;-65
2021/04/29 06:43:54;;;;;;;51.40;28.13;;;;;;;6.95;86.16;100053.88;5075406;28;20050;-66
2021/04/29 06:46:20;;;;;;;46.43;25.93;;;;;;;7.00;86.23;100055.22;5093474;28;20032;-66
2021/04/29 06:48:45;;;;;;;60.37;30.17;;;;;;;7.03;86.44;100054.91;5058405;28;20035;-66
2021/04/29 06:51:10;;;;;;;48.67;28.30;;;;;;;7.04;86.68;100052.09;5093272;28;20042;-66
2021/04/29 06:53:36;;;;;;;51.87;27.70;;;;;;;7.07;86.73;100045.63;5093191;28;20093;-66
2021/04/29 06:56:01;;;;;;;53.67;28.37;;;;;;;7.07;86.99;100046.50;5093161;28;20418;-66
2021/04/29 06:58:28;;;;;;;55.30;27.13;;;;;;;7.06;86.63;100049.28;5092733;28;20084;-66
2021/04/29 07:00:54;;;;;;;50.05;29.42;;;;;;;7.00;86.75;100045.44;5075264;28;20131;-66
2021/04/29 07:03:19;;;;;;;56.43;29.07;;;;;;;7.01;87.26;100049.75;5093140;28;20115;-66
2021/04/29 07:05:44;;;;;;;50.33;30.20;;;;;;;7.08;86.86;100045.50;5075176;28;20275;-66
2021/04/29 07:08:10;;;;;;;53.37;29.00;;;;;;;7.04;86.72;100051.25;5074835;28;20422;-66
2021/04/29 07:10:36;;;;;;;54.07;29.17;;;;;;;7.01;86.64;100041.78;5092906;28;20417;-66
2021/04/29 07:13:01;;;;;;;54.75;29.20;;;;;;;7.07;86.67;100043.84;5092816;28;20514;-66
2021/04/29 07:15:26;;;;;;;50.13;29.50;;;;;;;7.11;86.74;100036.38;5074417;28;20044;-66
2021/04/29 07:17:59;;;;;;;56.63;32.63;;;;;;;7.07;86.59;100030.56;5058032;28;20043;-66
2021/04/29 07:20:25;;;;;;;51.58;28.05;;;;;;;7.18;86.68;100035.56;5092671;28;20032;-66
2021/04/29 07:22:50;;;;;;;57.40;29.92;;;;;;;7.18;86.05;100034.75;5092703;28;20438;-66
2021/04/29 07:25:15;;;;;;;51.77;30.57;;;;;;;7.22;86.94;100032.63;5074803;28;20104;-66
2021/04/29 07:27:41;;;;;;;53.67;31.37;;;;;;;7.20;86.96;100024.81;5091996;28;20123;-66
2021/04/29 07:30:08;;;;;;;53.20;29.67;;;;;;;7.12;86.51;100036.22;5058515;28;20430;-66
2021/04/29 07:32:34;;;;;;;50.78;29.50;;;;;;;7.09;86.60;100033.88;5074641;28;20048;-66
2021/04/29 07:34:59;;;;;;;60.60;30.37;;;;;;;6.98;86.20;100032.31;5092400;28;20172;-66
2021/04/29 07:37:24;;;;;;;52.73;30.40;;;;;;;6.95;87.74;100026.50;5092259;28;20070;-66
2021/04/29 07:39:50;;;;;;;49.60;27.90;;;;;;;7.12;87.74;100022.13;5074378;28;20070;-66
2021/04/29 07:42:15;;;;;;;49.93;28.50;;;;;;;7.15;87.40;100014.66;5074417;28;20028;-66
2021/04/29 07:44:40;;;;;;;45.37;26.77;;;;;;;7.15;86.70;100021.81;5074471;28;20442;-66
2021/04/29 07:47:06;;;;;;;50.17;26.47;;;;;;;7.30;86.50;100019.38;5074467;28;20036;-66
2021/04/29 07:49:31;;;;;;;50.37;27.90;;;;;;;7.21;85.83;100023.84;5091950;28;20058;-66
2021/04/29 07:51:57;;;;;;;46.13;24.80;;;;;;;7.37;86.45;100012.44;5074337;28;20473;-66
2021/04/29 07:54:22;;;;;;;53.67;28.63;;;;;;;7.50;86.32;100015.50;5092186;28;20036;-66
2021/04/29 07:56:47;;;;;;;39.70;24.50;;;;;;;7.45;85.87;100012.47;5074232;28;20036;-66
2021/04/29 07:59:13;;;;;;;47.37;25.30;;;;;;;7.51;86.27;100017.13;5073934;28;20123;-66
2021/04/29 08:01:38;;;;;;;43.27;26.70;;;;;;;7.63;86.05;100008.88;5092073;28;20036;-66
2021/04/29 08:04:04;;;;;;;47.93;25.17;;;;;;;7.63;86.09;100014.19;5091929;28;20468;-66
2021/04/29 08:06:29;;;;;;;42.40;24.67;;;;;;;7.82;85.70;100008.63;5091910;28;20284;-66
2021/04/29 08:08:56;;;;;;;39.53;24.60;;;;;;;7.84;86.01;100006.59;5091454;28;20100;-66
2021/04/29 08:11:22;;;;;;;47.53;25.80;;;;;;;7.86;85.71;100014.44;5091570;28;20308;-66
2021/04/29 08:13:47;;;;;;;46.45;23.63;;;;;;;7.77;85.46;100010.91;5073863;28;20047;-66
2021/04/29 08:16:13;;;;;;;37.93;21.30;;;;;;;7.72;84.98;100002.59;5073865;28;20146;-66
2021/04/29 08:18:38;;;;;;;38.33;23.53;;;;;;;7.60;85.24;100020.66;5073679;28;20278;-66
2021/04/29 08:21:05;;;;;;;45.60;22.33;;;;;;;7.46;84.86;100015.97;5091658;28;20050;-66
2021/04/29 08:23:31;;;;;;;41.38;24.45;;;;;;;7.34;84.09;100018.91;5091620;28;20050;-66
2021/04/29 08:25:56;;;;;;;43.70;22.58;;;;;;;7.37;85.35;100025.72;5091468;28;20036;-66
2021/04/29 08:28:22;;;;;;;46.33;26.05;;;;;;;7.55;85.32;100029.13;5072377;28;20128;-66
2021/04/29 08:30:48;;;;;;;40.78;25.88;;;;;;;7.66;85.75;100009.41;5073781;28;20048;-65
2021/04/29 08:33:13;;;;;;;43.77;24.90;;;;;;;7.75;85.88;100019.06;5091512;28;20185;-66
2021/04/29 08:35:38;;;;;;;52.37;25.07;;;;;;;7.73;85.67;100021.03;5091470;28;20104;-66
2021/04/29 08:38:04;;;;;;;42.23;24.83;;;;;;;7.75;85.73;100012.88;5091128;28;20439;-66
2021/04/29 08:40:30;;;;;;;46.30;24.80;;;;;;;7.80;85.38;100018.56;5091382;28;20115;-66
2021/04/29 08:42:56;;;;;;;44.67;24.15;;;;;;;7.75;85.46;100020.88;5091292;28;20449;-66
2021/04/29 08:45:22;;;;;;;43.50;25.02;;;;;;;7.69;85.28;100018.88;5091578;28;20115;-66
2021/04/29 08:47:53;;;;;;;41.50;22.02;;;;;;;7.58;84.94;100017.34;5073212;28;20047;-66
2021/04/29 08:50:19;;;;;;;41.40;23.60;;;;;;;7.75;85.25;100018.22;5073495;28;20932;-66
2021/04/29 08:52:45;;;;;;;40.95;23.10;;;;;;;7.82;85.24;100035.19;5073356;28;20051;-66
2021/04/29 08:55:18;;;;;;;42.50;25.30;;;;;;;7.82;85.48;100029.88;5056565;28;20036;-66
2021/04/29 08:57:45;;;;;;;45.85;23.95;;;;;;;7.84;85.79;100033.19;5090894;28;20044;-66
2021/04/29 09:00:12;;;;;;;46.88;24.98;;;;;;;7.84;85.70;100033.19;5073372;28;20050;-66
2021/04/29 09:02:38;;;;;;;55.28;26.83;;;;;;;7.74;85.75;100038.63;5091093;28;20051;-66
2021/04/29 09:05:14;;;;;;;37.67;22.17;;;;;;;7.75;85.87;100031.50;5073420;28;20449;-69
2021/04/29 09:08:03;;;;;;;44.95;25.08;;;;;;;7.74;85.81;100024.53;5090613;28;20040;-69
2021/04/29 09:10:39;;;;;;;50.45;24.20;;;;;;;7.70;86.10;100026.69;5073297;28;20071;-69
2021/04/29 09:13:15;;;;;;;39.30;23.45;;;;;;;7.74;86.37;100029.84;5073205;28;20036;-69
2021/04/29 09:15:41;;;;;;;46.67;26.02;;;;;;;7.81;86.39;100021.06;5056542;28;20031;-69
2021/04/29 09:18:16;;;;;;;50.97;27.33;;;;;;;7.77;85.92;100024.19;5090592;28;20507;-69
2021/04/29 09:21:10;;;;;;;43.50;26.48;;;;;;;7.80;86.37;100029.22;5091011;28;20036;-69
2021/04/29 09:23:39;;;;;;;44.78;25.70;;;;;;;7.83;86.16;100018.25;5073134;28;20150;-69
2021/04/29 09:26:14;;;;;;;45.65;25.70;;;;;;;7.86;86.30;100015.25;5056488;28;20368;-69
2021/04/29 09:28:48;;;;;;;43.28;24.38;;;;;;;7.94;86.42;100011.81;5072619;28;20047;-69
2021/04/29 09:31:15;;;;;;;36.50;22.75;;;;;;;7.97;85.90;100006.16;5073093;28;20051;-69
2021/04/29 09:33:56;;;;;;;41.45;23.80;;;;;;;8.05;86.20;100008.81;5073102;28;20044;-69
2021/04/29 09:36:26;;;;;;;40.03;22.48;;;;;;;8.11;85.49;100007.34;5073004;28;20044;-65
2021/04/29 09:39:13;;;;;;;35.53;21.42;;;;;;;8.10;85.04;100006.50;5073867;28;20123;-65
2021/04/29 09:41:41;;;;;;;34.80;21.90;;;;;;;7.97;84.35;100006.97;5094567;28;20444;-65
2021/04/29 09:44:10;;;;;;;40.85;22.70;;;;;;;7.99;85.41;100006.81;5076909;28;20036;-65
2021/04/29 09:46:45;;;;;;;37.80;20.02;;;;;;;7.94;85.24;100002.00;5076667;28;20456;-65
2021/04/29 09:49:27;;;;;;;40.70;22.48;;;;;;;8.02;85.62;100009.16;5094220;28;20039;-65
2021/04/29 09:51:54;;;;;;;37.33;21.75;;;;;;;8.15;85.86;100011.34;5094480;28;20392;-65
2021/04/29 09:54:37;;;;;;;40.67;22.70;;;;;;;8.07;85.73;100011.31;5094486;28;20093;-65
2021/04/29 09:57:09;;;;;;;37.30;22.17;;;;;;;8.02;85.50;100004.66;5076559;28;20077;-65
2021/04/29 09:59:40;;;;;;;35.25;21.02;;;;;;;7.91;85.41;99991.66;5076213;28;20437;-65
2021/04/29 10:02:06;;;;;;;35.03;20.65;;;;;;;7.98;85.16;100003.34;5094408;28;20103;-65
2021/04/29 10:04:32;;;;;;;36.45;21.08;;;;;;;7.94;85.23;100002.00;5094303;28;20046;-65
2021/04/29 10:07:00;;;;;;;39.67;21.77;;;;;;;7.94;84.91;99991.38;5094113;28;20028;-65
2021/04/29 10:09:31;;;;;;;36.53;22.20;;;;;;;8.09;85.72;100002.16;5093969;28;20047;-65
2021/04/29 10:12:03;;;;;;;39.38;22.42;;;;;;;8.17;85.24;99996.03;5059524;28;20032;-65
2021/04/29 10:14:33;;;;;;;37.83;22.33;;;;;;;8.19;84.92;99994.03;5085780;28;20036;-65
2021/04/29 10:17:06;;;;;;;38.45;20.77;;;;;;;8.34;84.67;99991.56;5076196;28;20036;-65
2021/04/29 10:19:38;;;;;;;36.20;21.48;;;;;;;8.31;84.07;99994.53;5076077;28;20055;-65
2021/04/29 10:22:04;;;;;;;39.50;21.00;;;;;;;8.39;84.56;99990.06;5076143;28;20042;-65
2021/04/29 10:24:29;;;;;;;34.28;18.48;;;;;;;8.38;83.56;99984.88;5076182;28;20024;-65
2021/04/29 10:27:09;;;;;;;38.57;19.83;;;;;;;8.41;84.50;99992.59;5075939;28;20511;-65
2021/04/29 10:29:35;;;;;;;29.77;18.95;;;;;;;8.33;84.72;99993.38;5059001;28;20149;-65
2021/04/29 10:32:06;;;;;;;29.40;19.20;;;;;;;8.35;84.06;99993.22;5093794;28;20040;-65
2021/04/29 10:34:44;;;;;;;28.88;20.02;;;;;;;8.55;84.66;99994.56;5085820;28;20032;-65
2021/04/29 10:37:22;;;;;;;35.80;19.42;;;;;;;8.36;83.77;99993.06;5059092;28;20031;-65
2021/04/29 10:39:58;;;;;;;33.42;18.67;;;;;;;8.45;83.97;99999.22;5093356;28;20144;-65
2021/04/29 10:42:25;;;;;;;35.97;19.23;;;;;;;8.42;84.20;100002.22;5093499;28;20050;-65
2021/04/29 10:44:53;;;;;;;38.45;20.55;;;;;;;8.30;84.42;99996.38;5075849;28;20043;-65
2021/04/29 10:47:28;;;;;;;32.67;20.67;;;;;;;8.24;84.68;99997.88;5093463;28;20078;-65
2021/04/29 10:50:18;;;;;;;33.03;18.23;;;;;;;8.15;84.13;99992.72;5074640;28;20032;-65
2021/04/29 10:52:56;;;;;;;35.72;19.50;;;;;;;8.28;84.53;99993.03;5093444;28;20092;-65
2021/04/29 10:55:33;;;;;;;41.42;19.40;;;;;;;8.10;84.94;99995.03;5075558;28;20055;-65
2021/04/29 10:58:00;;;;;;;36.00;20.60;;;;;;;8.21;84.96;99987.56;5092938;28;20046;-65
2021/04/29 11:00:27;;;;;;;35.55;20.90;;;;;;;8.30;84.32;99985.72;5093269;28;20040;-65
2021/04/29 11:03:05;;;;;;;34.85;19.55;;;;;;;8.52;84.47;99984.28;5093180;28;20081;-65
2021/04/29 11:05:35;;;;;;;36.47;21.73;;;;;;;8.63;84.39;99989.22;5093093;28;20051;-65
2021/04/29 11:08:09;;;;;;;34.55;21.10;;;;;;;8.71;83.75;99987.56;5074932;28;20067;-65
2021/04/29 11:10:39;;;;;;;34.00;20.42;;;;;;;8.87;84.03;99979.53;5092806;28;20453;-65
2021/04/29 11:13:08;;;;;;;40.42;21.17;;;;;;;9.08;83.93;99973.66;5075036;28;20047;-65
2021/04/29 11:15:36;;;;;;;32.75;19.55;;;;;;;8.93;81.75;99970.06;5092927;28;20051;-65
2021/04/29 11:18:11;;;;;;;32.22;20.98;;;;;;;8.97;82.48;99966.06;5074684;28;20027;-65
2021/04/29 11:20:41;;;;;;;32.85;19.88;;;;;;;9.07;83.15;99962.19;5074907;28;20044;-65